sensor_id;sensor_type;location;lat;lon;timestamp;P1;durP1;ratioP1;P2;durP2;ratioP2
8086;SDS011;4086;54.412;9.980;2023-07-31T00:00:41;4.40;;;2.63;;
8086;SDS011;4086;54.412;9.980;2023-07-31T00:03:07;10.27;;;2.57;;
8086;SDS011;4086;54.412;9.980;2023-07-31T00:05:35;4.97;;;2.77;;
8086;SDS011;4086;54.412;9.980;2023-07-31T00:08:01;5.30;;;3.00;;
8086;SDS011;4086;54.412;9.980;2023-07-31T00:10:27;5.83;;;2.90;;
8086;SDS011;4086;54.412;9.980;2023-07-31T00:12:55;7.17;;;3.27;;
8086;SDS011;4086;54.412;9.980;2023-07-31T00:15:21;6.03;;;3.00;;
8086;SDS011;4086;54.412;9.980;2023-07-31T00:17:48;8.60;;;3.20;;
8086;SDS011;4086;54.412;9.980;2023-07-31T00:20:14;3.47;;;2.63;;
8086;SDS011;4086;54.412;9.980;2023-07-31T00:22:41;6.97;;;2.80;;
8086;SDS011;4086;54.412;9.980;2023-07-31T00:25:07;7.43;;;3.03;;
8086;SDS011;4086;54.412;9.980;2023-07-31T00:27:34;5.80;;;2.57;;
8086;SDS011;4086;54.412;9.980;2023-07-31T00:30:01;5.20;;;2.87;;
8086;SDS011;4086;54.412;9.980;2023-07-31T00:32:29;4.97;;;2.70;;
8086;SDS011;4086;54.412;9.980;2023-07-31T00:34:55;7.20;;;3.00;;
8086;SDS011;4086;54.412;9.980;2023-07-31T00:37:22;4.20;;;3.10;;
8086;SDS011;4086;54.412;9.980;2023-07-31T00:39:48;7.60;;;3.13;;
8086;SDS011;4086;54.412;9.980;2023-07-31T00:42:14;5.07;;;2.73;;
8086;SDS011;4086;54.412;9.980;2023-07-31T00:44:41;6.87;;;2.60;;
8086;SDS011;4086;54.412;9.980;2023-07-31T00:47:08;6.43;;;2.63;;
8086;SDS011;4086;54.412;9.980;2023-07-31T00:49:35;5.20;;;2.67;;
8086;SDS011;4086;54.412;9.980;2023-07-31T00:52:01;7.17;;;2.83;;
8086;SDS011;4086;54.412;9.980;2023-07-31T00:54:28;5.73;;;2.63;;
8086;SDS011;4086;54.412;9.980;2023-07-31T00:56:54;4.13;;;2.63;;
8086;SDS011;4086;54.412;9.980;2023-07-31T00:59:21;4.20;;;2.30;;
8086;SDS011;4086;54.412;9.980;2023-07-31T01:01:47;4.57;;;2.50;;
8086;SDS011;4086;54.412;9.980;2023-07-31T01:04:15;4.97;;;2.50;;
8086;SDS011;4086;54.412;9.980;2023-07-31T01:06:44;4.83;;;2.17;;
8086;SDS011;4086;54.412;9.980;2023-07-31T01:09:16;4.07;;;2.27;;
8086;SDS011;4086;54.412;9.980;2023-07-31T01:11:49;3.43;;;2.50;;
8086;SDS011;4086;54.412;9.980;2023-07-31T01:14:18;5.93;;;2.67;;
8086;SDS011;4086;54.412;9.980;2023-07-31T01:16:45;2.27;;;2.07;;
8086;SDS011;4086;54.412;9.980;2023-07-31T01:19:11;4.30;;;2.10;;
8086;SDS011;4086;54.412;9.980;2023-07-31T01:21:48;2.77;;;1.97;;
8086;SDS011;4086;54.412;9.980;2023-07-31T01:24:28;2.20;;;1.97;;
8086;SDS011;4086;54.412;9.980;2023-07-31T01:26:58;3.77;;;2.10;;
8086;SDS011;4086;54.412;9.980;2023-07-31T01:29:32;3.60;;;2.20;;
8086;SDS011;4086;54.412;9.980;2023-07-31T01:32:03;3.03;;;2.00;;
8086;SDS011;4086;54.412;9.980;2023-07-31T01:34:31;3.23;;;1.90;;
8086;SDS011;4086;54.412;9.980;2023-07-31T01:36:58;4.37;;;2.07;;
8086;SDS011;4086;54.412;9.980;2023-07-31T01:39:24;3.43;;;2.00;;
8086;SDS011;4086;54.412;9.980;2023-07-31T01:41:51;2.83;;;1.77;;
8086;SDS011;4086;54.412;9.980;2023-07-31T01:44:19;2.73;;;1.90;;
8086;SDS011;4086;54.412;9.980;2023-07-31T01:46:45;2.27;;;1.80;;
8086;SDS011;4086;54.412;9.980;2023-07-31T01:49:11;3.40;;;2.00;;
8086;SDS011;4086;54.412;9.980;2023-07-31T01:51:38;2.37;;;2.00;;
8086;SDS011;4086;54.412;9.980;2023-07-31T01:54:04;2.20;;;1.83;;
8086;SDS011;4086;54.412;9.980;2023-07-31T01:56:30;3.17;;;2.20;;
8086;SDS011;4086;54.412;9.980;2023-07-31T01:58:57;2.07;;;1.80;;
8086;SDS011;4086;54.412;9.980;2023-07-31T02:01:24;3.03;;;2.20;;
8086;SDS011;4086;54.412;9.980;2023-07-31T02:03:51;3.13;;;1.87;;
8086;SDS011;4086;54.412;9.980;2023-07-31T02:06:17;2.93;;;2.10;;
8086;SDS011;4086;54.412;9.980;2023-07-31T02:08:43;3.47;;;2.00;;
8086;SDS011;4086;54.412;9.980;2023-07-31T02:11:10;3.40;;;1.90;;
8086;SDS011;4086;54.412;9.980;2023-07-31T02:13:36;2.23;;;1.90;;
8086;SDS011;4086;54.412;9.980;2023-07-31T02:16:03;3.80;;;1.90;;
8086;SDS011;4086;54.412;9.980;2023-07-31T02:18:31;2.43;;;1.70;;
8086;SDS011;4086;54.412;9.980;2023-07-31T02:20:57;2.80;;;1.83;;
8086;SDS011;4086;54.412;9.980;2023-07-31T02:23:23;3.87;;;1.80;;
8086;SDS011;4086;54.412;9.980;2023-07-31T02:25:50;2.77;;;2.00;;
8086;SDS011;4086;54.412;9.980;2023-07-31T02:28:16;4.07;;;2.00;;
8086;SDS011;4086;54.412;9.980;2023-07-31T02:30:43;2.33;;;1.83;;
8086;SDS011;4086;54.412;9.980;2023-07-31T02:33:10;4.77;;;2.03;;
8086;SDS011;4086;54.412;9.980;2023-07-31T02:35:37;2.43;;;2.00;;
8086;SDS011;4086;54.412;9.980;2023-07-31T02:38:04;4.97;;;2.20;;
8086;SDS011;4086;54.412;9.980;2023-07-31T02:40:30;3.10;;;2.10;;
8086;SDS011;4086;54.412;9.980;2023-07-31T02:42:56;2.67;;;2.03;;
8086;SDS011;4086;54.412;9.980;2023-07-31T02:45:23;5.23;;;2.60;;
8086;SDS011;4086;54.412;9.980;2023-07-31T02:47:49;2.13;;;1.90;;
8086;SDS011;4086;54.412;9.980;2023-07-31T02:50:16;5.27;;;2.30;;
8086;SDS011;4086;54.412;9.980;2023-07-31T02:52:43;3.47;;;2.23;;
8086;SDS011;4086;54.412;9.980;2023-07-31T02:55:10;2.80;;;2.40;;
8086;SDS011;4086;54.412;9.980;2023-07-31T02:57:36;3.70;;;2.40;;
8086;SDS011;4086;54.412;9.980;2023-07-31T03:00:03;3.73;;;2.70;;
8086;SDS011;4086;54.412;9.980;2023-07-31T03:02:31;6.43;;;2.93;;
8086;SDS011;4086;54.412;9.980;2023-07-31T03:04:57;5.23;;;3.27;;
8086;SDS011;4086;54.412;9.980;2023-07-31T03:07:24;6.10;;;3.40;;
8086;SDS011;4086;54.412;9.980;2023-07-31T03:09:51;8.40;;;3.50;;
8086;SDS011;4086;54.412;9.980;2023-07-31T03:12:21;5.37;;;3.40;;
8086;SDS011;4086;54.412;9.980;2023-07-31T03:14:47;6.57;;;3.67;;
8086;SDS011;4086;54.412;9.980;2023-07-31T03:17:13;6.40;;;4.17;;
8086;SDS011;4086;54.412;9.980;2023-07-31T03:19:40;9.47;;;4.50;;
8086;SDS011;4086;54.412;9.980;2023-07-31T03:22:06;7.07;;;4.50;;
8086;SDS011;4086;54.412;9.980;2023-07-31T03:24:32;10.33;;;4.97;;
8086;SDS011;4086;54.412;9.980;2023-07-31T03:27:00;6.20;;;4.63;;
8086;SDS011;4086;54.412;9.980;2023-07-31T03:29:26;9.43;;;6.13;;
8086;SDS011;4086;54.412;9.980;2023-07-31T03:31:53;7.07;;;5.77;;
8086;SDS011;4086;54.412;9.980;2023-07-31T03:34:19;7.57;;;5.47;;
8086;SDS011;4086;54.412;9.980;2023-07-31T03:36:45;10.00;;;6.17;;
8086;SDS011;4086;54.412;9.980;2023-07-31T03:39:12;10.10;;;6.17;;
8086;SDS011;4086;54.412;9.980;2023-07-31T03:41:38;10.33;;;6.17;;
8086;SDS011;4086;54.412;9.980;2023-07-31T03:44:06;8.93;;;6.80;;
8086;SDS011;4086;54.412;9.980;2023-07-31T03:46:32;8.70;;;7.23;;
8086;SDS011;4086;54.412;9.980;2023-07-31T03:48:59;9.23;;;6.70;;
8086;SDS011;4086;54.412;9.980;2023-07-31T03:51:26;10.40;;;6.80;;
8086;SDS011;4086;54.412;9.980;2023-07-31T03:53:52;11.80;;;7.60;;
8086;SDS011;4086;54.412;9.980;2023-07-31T03:56:18;11.50;;;7.63;;
8086;SDS011;4086;54.412;9.980;2023-07-31T03:58:45;13.87;;;9.00;;
8086;SDS011;4086;54.412;9.980;2023-07-31T04:01:12;12.80;;;8.93;;
8086;SDS011;4086;54.412;9.980;2023-07-31T04:03:39;10.90;;;8.90;;
8086;SDS011;4086;54.412;9.980;2023-07-31T04:06:05;13.53;;;9.90;;
8086;SDS011;4086;54.412;9.980;2023-07-31T04:08:32;11.93;;;8.53;;
8086;SDS011;4086;54.412;9.980;2023-07-31T04:10:59;15.63;;;9.70;;
8086;SDS011;4086;54.412;9.980;2023-07-31T04:13:25;15.37;;;9.53;;
8086;SDS011;4086;54.412;9.980;2023-07-31T04:15:52;10.97;;;9.00;;
8086;SDS011;4086;54.412;9.980;2023-07-31T04:18:20;12.30;;;9.40;;
8086;SDS011;4086;54.412;9.980;2023-07-31T04:20:47;10.43;;;9.30;;
8086;SDS011;4086;54.412;9.980;2023-07-31T04:23:13;11.37;;;9.47;;
8086;SDS011;4086;54.412;9.980;2023-07-31T04:25:39;13.33;;;10.37;;
8086;SDS011;4086;54.412;9.980;2023-07-31T04:28:06;13.87;;;9.80;;
8086;SDS011;4086;54.412;9.980;2023-07-31T04:30:32;12.43;;;9.40;;
8086;SDS011;4086;54.412;9.980;2023-07-31T04:32:58;17.20;;;9.67;;
8086;SDS011;4086;54.412;9.980;2023-07-31T04:35:27;13.30;;;10.27;;
8086;SDS011;4086;54.412;9.980;2023-07-31T04:37:53;13.10;;;10.30;;
8086;SDS011;4086;54.412;9.980;2023-07-31T04:40:20;13.00;;;10.00;;
8086;SDS011;4086;54.412;9.980;2023-07-31T04:42:46;11.60;;;9.60;;
8086;SDS011;4086;54.412;9.980;2023-07-31T04:45:13;13.50;;;10.50;;
8086;SDS011;4086;54.412;9.980;2023-07-31T04:47:40;12.27;;;9.57;;
8086;SDS011;4086;54.412;9.980;2023-07-31T04:50:06;11.70;;;9.60;;
8086;SDS011;4086;54.412;9.980;2023-07-31T04:52:34;12.57;;;10.33;;
8086;SDS011;4086;54.412;9.980;2023-07-31T04:55:01;13.53;;;10.27;;
8086;SDS011;4086;54.412;9.980;2023-07-31T04:57:27;11.27;;;9.33;;
8086;SDS011;4086;54.412;9.980;2023-07-31T04:59:54;11.47;;;9.47;;
8086;SDS011;4086;54.412;9.980;2023-07-31T05:02:20;11.67;;;10.03;;
8086;SDS011;4086;54.412;9.980;2023-07-31T05:04:47;11.57;;;10.40;;
8086;SDS011;4086;54.412;9.980;2023-07-31T05:07:13;14.33;;;11.10;;
8086;SDS011;4086;54.412;9.980;2023-07-31T05:09:41;10.97;;;9.87;;
8086;SDS011;4086;54.412;9.980;2023-07-31T05:12:08;18.63;;;11.80;;
8086;SDS011;4086;54.412;9.980;2023-07-31T05:14:34;15.33;;;12.03;;
8086;SDS011;4086;54.412;9.980;2023-07-31T05:17:00;13.47;;;11.23;;
8086;SDS011;4086;54.412;9.980;2023-07-31T05:19:27;13.03;;;10.90;;
8086;SDS011;4086;54.412;9.980;2023-07-31T05:21:53;13.77;;;11.20;;
8086;SDS011;4086;54.412;9.980;2023-07-31T05:24:20;16.17;;;12.00;;
8086;SDS011;4086;54.412;9.980;2023-07-31T05:26:47;15.73;;;12.20;;
8086;SDS011;4086;54.412;9.980;2023-07-31T05:29:14;16.20;;;12.53;;
8086;SDS011;4086;54.412;9.980;2023-07-31T05:31:41;16.37;;;12.03;;
8086;SDS011;4086;54.412;9.980;2023-07-31T05:34:07;15.43;;;12.40;;
8086;SDS011;4086;54.412;9.980;2023-07-31T05:36:34;16.70;;;12.73;;
8086;SDS011;4086;54.412;9.980;2023-07-31T05:39:00;18.53;;;13.87;;
8086;SDS011;4086;54.412;9.980;2023-07-31T05:41:31;16.20;;;13.83;;
8086;SDS011;4086;54.412;9.980;2023-07-31T05:43:59;17.83;;;13.20;;
8086;SDS011;4086;54.412;9.980;2023-07-31T05:46:25;18.40;;;13.83;;
8086;SDS011;4086;54.412;9.980;2023-07-31T05:48:51;16.80;;;14.67;;
8086;SDS011;4086;54.412;9.980;2023-07-31T05:51:18;18.33;;;14.60;;
8086;SDS011;4086;54.412;9.980;2023-07-31T05:53:44;18.00;;;14.33;;
8086;SDS011;4086;54.412;9.980;2023-07-31T05:56:11;19.63;;;14.80;;
8086;SDS011;4086;54.412;9.980;2023-07-31T05:58:37;15.77;;;14.17;;
8086;SDS011;4086;54.412;9.980;2023-07-31T06:01:05;15.47;;;13.87;;
8086;SDS011;4086;54.412;9.980;2023-07-31T06:03:31;15.63;;;14.03;;
8086;SDS011;4086;54.412;9.980;2023-07-31T06:05:58;15.60;;;14.00;;
8086;SDS011;4086;54.412;9.980;2023-07-31T06:08:24;14.67;;;13.27;;
8086;SDS011;4086;54.412;9.980;2023-07-31T06:10:51;14.67;;;13.00;;
8086;SDS011;4086;54.412;9.980;2023-07-31T06:13:17;14.60;;;13.10;;
8086;SDS011;4086;54.412;9.980;2023-07-31T06:15:44;13.90;;;11.97;;
8086;SDS011;4086;54.412;9.980;2023-07-31T06:18:11;13.80;;;12.43;;
8086;SDS011;4086;54.412;9.980;2023-07-31T06:20:38;14.37;;;12.87;;
8086;SDS011;4086;54.412;9.980;2023-07-31T06:23:05;13.03;;;11.27;;
8086;SDS011;4086;54.412;9.980;2023-07-31T06:25:32;13.70;;;12.30;;
8086;SDS011;4086;54.412;9.980;2023-07-31T06:27:59;13.37;;;11.97;;
8086;SDS011;4086;54.412;9.980;2023-07-31T06:30:25;14.90;;;10.90;;
8086;SDS011;4086;54.412;9.980;2023-07-31T06:32:51;12.40;;;11.20;;
8086;SDS011;4086;54.412;9.980;2023-07-31T06:35:19;12.90;;;11.40;;
8086;SDS011;4086;54.412;9.980;2023-07-31T06:37:46;12.43;;;11.13;;
8086;SDS011;4086;54.412;9.980;2023-07-31T06:40:12;11.83;;;10.73;;
8086;SDS011;4086;54.412;9.980;2023-07-31T06:42:39;12.30;;;10.20;;
8086;SDS011;4086;54.412;9.980;2023-07-31T06:45:05;11.43;;;9.80;;
8086;SDS011;4086;54.412;9.980;2023-07-31T06:47:33;10.90;;;9.77;;
8086;SDS011;4086;54.412;9.980;2023-07-31T06:49:59;10.57;;;9.53;;
8086;SDS011;4086;54.412;9.980;2023-07-31T06:52:27;9.37;;;8.47;;
8086;SDS011;4086;54.412;9.980;2023-07-31T06:55:03;11.57;;;10.37;;
8086;SDS011;4086;54.412;9.980;2023-07-31T06:57:30;11.03;;;9.87;;
8086;SDS011;4086;54.412;9.980;2023-07-31T06:59:56;10.80;;;9.43;;
8086;SDS011;4086;54.412;9.980;2023-07-31T07:02:23;9.77;;;8.77;;
8086;SDS011;4086;54.412;9.980;2023-07-31T07:04:49;10.50;;;9.50;;
8086;SDS011;4086;54.412;9.980;2023-07-31T07:07:16;9.50;;;8.60;;
8086;SDS011;4086;54.412;9.980;2023-07-31T07:09:44;9.83;;;8.97;;
8086;SDS011;4086;54.412;9.980;2023-07-31T07:12:11;10.13;;;9.13;;
8086;SDS011;4086;54.412;9.980;2023-07-31T07:14:37;9.10;;;8.30;;
8086;SDS011;4086;54.412;9.980;2023-07-31T07:17:04;8.90;;;8.17;;
8086;SDS011;4086;54.412;9.980;2023-07-31T07:19:31;9.20;;;8.50;;
8086;SDS011;4086;54.412;9.980;2023-07-31T07:21:57;8.63;;;7.93;;
8086;SDS011;4086;54.412;9.980;2023-07-31T07:24:26;8.60;;;7.80;;
8086;SDS011;4086;54.412;9.980;2023-07-31T07:26:53;8.03;;;7.43;;
8086;SDS011;4086;54.412;9.980;2023-07-31T07:29:20;7.13;;;6.60;;
8086;SDS011;4086;54.412;9.980;2023-07-31T07:31:46;7.43;;;6.70;;
8086;SDS011;4086;54.412;9.980;2023-07-31T07:34:13;7.10;;;6.60;;
8086;SDS011;4086;54.412;9.980;2023-07-31T07:36:39;6.87;;;6.17;;
8086;SDS011;4086;54.412;9.980;2023-07-31T07:39:05;6.67;;;6.20;;
8086;SDS011;4086;54.412;9.980;2023-07-31T07:41:32;6.23;;;5.73;;
8086;SDS011;4086;54.412;9.980;2023-07-31T07:44:00;5.50;;;5.10;;
8086;SDS011;4086;54.412;9.980;2023-07-31T07:46:26;5.57;;;5.07;;
8086;SDS011;4086;54.412;9.980;2023-07-31T07:48:52;5.10;;;4.60;;
8086;SDS011;4086;54.412;9.980;2023-07-31T07:51:19;4.43;;;4.03;;
8086;SDS011;4086;54.412;9.980;2023-07-31T07:53:45;4.50;;;4.20;;
8086;SDS011;4086;54.412;9.980;2023-07-31T07:56:12;4.50;;;4.20;;
8086;SDS011;4086;54.412;9.980;2023-07-31T07:58:38;4.23;;;3.80;;
8086;SDS011;4086;54.412;9.980;2023-07-31T08:01:06;3.90;;;3.60;;
8086;SDS011;4086;54.412;9.980;2023-07-31T08:03:32;4.00;;;3.70;;
8086;SDS011;4086;54.412;9.980;2023-07-31T08:05:59;4.00;;;3.63;;
8086;SDS011;4086;54.412;9.980;2023-07-31T08:08:25;3.57;;;3.10;;
8086;SDS011;4086;54.412;9.980;2023-07-31T08:10:52;3.30;;;3.10;;
8086;SDS011;4086;54.412;9.980;2023-07-31T08:13:18;2.60;;;2.50;;
8086;SDS011;4086;54.412;9.980;2023-07-31T08:15:44;2.80;;;2.60;;
8086;SDS011;4086;54.412;9.980;2023-07-31T08:18:12;2.70;;;2.60;;
8086;SDS011;4086;54.412;9.980;2023-07-31T08:20:39;3.17;;;2.97;;
8086;SDS011;4086;54.412;9.980;2023-07-31T08:23:05;2.90;;;2.70;;
8086;SDS011;4086;54.412;9.980;2023-07-31T08:25:34;2.40;;;2.30;;
8086;SDS011;4086;54.412;9.980;2023-07-31T08:28:00;2.67;;;2.47;;
8086;SDS011;4086;54.412;9.980;2023-07-31T08:30:27;2.30;;;2.20;;
8086;SDS011;4086;54.412;9.980;2023-07-31T08:32:53;2.50;;;2.30;;
8086;SDS011;4086;54.412;9.980;2023-07-31T08:35:21;2.20;;;2.10;;
8086;SDS011;4086;54.412;9.980;2023-07-31T08:37:47;2.20;;;2.10;;
8086;SDS011;4086;54.412;9.980;2023-07-31T08:40:14;2.10;;;2.00;;
8086;SDS011;4086;54.412;9.980;2023-07-31T08:42:43;2.20;;;2.10;;
8086;SDS011;4086;54.412;9.980;2023-07-31T08:45:12;2.20;;;2.10;;
8086;SDS011;4086;54.412;9.980;2023-07-31T08:47:40;2.30;;;2.20;;
8086;SDS011;4086;54.412;9.980;2023-07-31T08:50:07;2.40;;;2.20;;
8086;SDS011;4086;54.412;9.980;2023-07-31T08:52:35;3.07;;;2.20;;
8086;SDS011;4086;54.412;9.980;2023-07-31T08:55:01;2.40;;;2.30;;
8086;SDS011;4086;54.412;9.980;2023-07-31T08:57:28;2.37;;;2.17;;
8086;SDS011;4086;54.412;9.980;2023-07-31T08:59:55;2.53;;;2.33;;
8086;SDS011;4086;54.412;9.980;2023-07-31T09:02:22;2.60;;;2.40;;
8086;SDS011;4086;54.412;9.980;2023-07-31T09:04:50;3.40;;;2.40;;
8086;SDS011;4086;54.412;9.980;2023-07-31T09:07:16;2.70;;;2.50;;
8086;SDS011;4086;54.412;9.980;2023-07-31T09:09:44;2.43;;;2.33;;
8086;SDS011;4086;54.412;9.980;2023-07-31T09:12:11;2.83;;;2.40;;
8086;SDS011;4086;54.412;9.980;2023-07-31T09:14:38;2.40;;;2.30;;
8086;SDS011;4086;54.412;9.980;2023-07-31T09:17:05;2.70;;;2.50;;
8086;SDS011;4086;54.412;9.980;2023-07-31T09:19:32;2.40;;;2.30;;
8086;SDS011;4086;54.412;9.980;2023-07-31T09:22:01;2.47;;;2.30;;
8086;SDS011;4086;54.412;9.980;2023-07-31T09:24:28;2.67;;;2.47;;
8086;SDS011;4086;54.412;9.980;2023-07-31T09:26:58;2.57;;;2.37;;
8086;SDS011;4086;54.412;9.980;2023-07-31T09:29:25;2.47;;;2.30;;
8086;SDS011;4086;54.412;9.980;2023-07-31T09:31:52;2.53;;;2.20;;
8086;SDS011;4086;54.412;9.980;2023-07-31T09:34:19;2.93;;;2.73;;
8086;SDS011;4086;54.412;9.980;2023-07-31T09:36:47;2.70;;;2.50;;
8086;SDS011;4086;54.412;9.980;2023-07-31T09:39:15;2.77;;;2.57;;
8086;SDS011;4086;54.412;9.980;2023-07-31T09:41:43;2.63;;;2.33;;
8086;SDS011;4086;54.412;9.980;2023-07-31T09:44:14;2.93;;;2.63;;
8086;SDS011;4086;54.412;9.980;2023-07-31T09:46:40;2.73;;;2.53;;
8086;SDS011;4086;54.412;9.980;2023-07-31T09:49:07;3.07;;;2.70;;
8086;SDS011;4086;54.412;9.980;2023-07-31T09:51:35;2.93;;;2.73;;
8086;SDS011;4086;54.412;9.980;2023-07-31T09:54:03;2.90;;;2.63;;
8086;SDS011;4086;54.412;9.980;2023-07-31T09:56:34;2.90;;;2.70;;
8086;SDS011;4086;54.412;9.980;2023-07-31T09:59:02;3.40;;;3.17;;
8086;SDS011;4086;54.412;9.980;2023-07-31T10:01:31;3.00;;;2.73;;
8086;SDS011;4086;54.412;9.980;2023-07-31T10:03:58;3.03;;;2.80;;
8086;SDS011;4086;54.412;9.980;2023-07-31T10:06:24;3.00;;;2.80;;
8086;SDS011;4086;54.412;9.980;2023-07-31T10:08:51;3.80;;;3.50;;
8086;SDS011;4086;54.412;9.980;2023-07-31T10:11:19;2.80;;;2.60;;
8086;SDS011;4086;54.412;9.980;2023-07-31T10:13:45;3.30;;;3.10;;
8086;SDS011;4086;54.412;9.980;2023-07-31T10:16:12;3.20;;;3.00;;
8086;SDS011;4086;54.412;9.980;2023-07-31T10:18:42;4.53;;;4.13;;
8086;SDS011;4086;54.412;9.980;2023-07-31T10:21:09;3.67;;;3.47;;
8086;SDS011;4086;54.412;9.980;2023-07-31T10:23:36;3.53;;;3.23;;
8086;SDS011;4086;54.412;9.980;2023-07-31T10:26:03;4.00;;;3.70;;
8086;SDS011;4086;54.412;9.980;2023-07-31T10:28:31;4.10;;;3.80;;
8086;SDS011;4086;54.412;9.980;2023-07-31T10:30:58;4.07;;;3.67;;
8086;SDS011;4086;54.412;9.980;2023-07-31T10:33:25;3.70;;;3.40;;
8086;SDS011;4086;54.412;9.980;2023-07-31T10:36:06;3.27;;;3.07;;
8086;SDS011;4086;54.412;9.980;2023-07-31T10:38:38;3.33;;;3.13;;
8086;SDS011;4086;54.412;9.980;2023-07-31T10:41:07;3.70;;;3.50;;
8086;SDS011;4086;54.412;9.980;2023-07-31T10:43:34;3.87;;;3.57;;
8086;SDS011;4086;54.412;9.980;2023-07-31T10:46:05;4.00;;;3.70;;
8086;SDS011;4086;54.412;9.980;2023-07-31T10:48:33;3.63;;;3.33;;
8086;SDS011;4086;54.412;9.980;2023-07-31T10:51:00;3.70;;;3.40;;
8086;SDS011;4086;54.412;9.980;2023-07-31T10:53:28;3.50;;;3.20;;
8086;SDS011;4086;54.412;9.980;2023-07-31T10:55:57;3.77;;;3.47;;
8086;SDS011;4086;54.412;9.980;2023-07-31T10:58:24;4.47;;;3.40;;
8086;SDS011;4086;54.412;9.980;2023-07-31T11:00:56;4.37;;;4.07;;
8086;SDS011;4086;54.412;9.980;2023-07-31T11:03:24;3.60;;;3.30;;
8086;SDS011;4086;54.412;9.980;2023-07-31T11:05:52;4.27;;;3.77;;
8086;SDS011;4086;54.412;9.980;2023-07-31T11:08:20;4.23;;;3.90;;
8086;SDS011;4086;54.412;9.980;2023-07-31T11:10:50;3.80;;;3.50;;
8086;SDS011;4086;54.412;9.980;2023-07-31T11:13:17;3.70;;;3.50;;
8086;SDS011;4086;54.412;9.980;2023-07-31T11:15:43;4.03;;;3.63;;
8086;SDS011;4086;54.412;9.980;2023-07-31T11:18:10;3.70;;;3.40;;
8086;SDS011;4086;54.412;9.980;2023-07-31T11:20:36;3.60;;;3.30;;
8086;SDS011;4086;54.412;9.980;2023-07-31T11:23:04;3.77;;;3.27;;
8086;SDS011;4086;54.412;9.980;2023-07-31T11:25:32;3.50;;;3.13;;
8086;SDS011;4086;54.412;9.980;2023-07-31T11:28:03;3.47;;;3.17;;
8086;SDS011;4086;54.412;9.980;2023-07-31T11:30:30;3.47;;;3.17;;
8086;SDS011;4086;54.412;9.980;2023-07-31T11:32:56;3.50;;;3.20;;
8086;SDS011;4086;54.412;9.980;2023-07-31T11:35:23;3.27;;;3.00;;
8086;SDS011;4086;54.412;9.980;2023-07-31T11:37:49;3.67;;;3.20;;
8086;SDS011;4086;54.412;9.980;2023-07-31T11:40:16;4.37;;;3.10;;
8086;SDS011;4086;54.412;9.980;2023-07-31T11:42:42;3.90;;;3.60;;
8086;SDS011;4086;54.412;9.980;2023-07-31T11:45:10;4.03;;;3.63;;
8086;SDS011;4086;54.412;9.980;2023-07-31T11:47:37;3.90;;;3.60;;
8086;SDS011;4086;54.412;9.980;2023-07-31T11:50:04;3.93;;;3.57;;
8086;SDS011;4086;54.412;9.980;2023-07-31T11:52:32;4.30;;;3.90;;
8086;SDS011;4086;54.412;9.980;2023-07-31T11:55:01;4.40;;;3.90;;
8086;SDS011;4086;54.412;9.980;2023-07-31T11:57:28;4.50;;;4.10;;
8086;SDS011;4086;54.412;9.980;2023-07-31T11:59:55;4.77;;;4.40;;
8086;SDS011;4086;54.412;9.980;2023-07-31T12:02:24;4.17;;;3.87;;
8086;SDS011;4086;54.412;9.980;2023-07-31T12:04:50;4.53;;;4.23;;
8086;SDS011;4086;54.412;9.980;2023-07-31T12:07:17;5.17;;;4.67;;
8086;SDS011;4086;54.412;9.980;2023-07-31T12:09:53;5.23;;;4.77;;
8086;SDS011;4086;54.412;9.980;2023-07-31T12:12:20;5.00;;;4.60;;
8086;SDS011;4086;54.412;9.980;2023-07-31T12:14:46;4.70;;;4.40;;
8086;SDS011;4086;54.412;9.980;2023-07-31T12:17:13;3.93;;;3.63;;
8086;SDS011;4086;54.412;9.980;2023-07-31T12:19:41;4.67;;;4.30;;
8086;SDS011;4086;54.412;9.980;2023-07-31T12:22:11;4.53;;;4.13;;
8086;SDS011;4086;54.412;9.980;2023-07-31T12:24:38;4.03;;;3.60;;
8086;SDS011;4086;54.412;9.980;2023-07-31T12:27:08;3.33;;;3.07;;
8086;SDS011;4086;54.412;9.980;2023-07-31T12:29:35;2.70;;;2.50;;
8086;SDS011;4086;54.412;9.980;2023-07-31T12:32:02;3.20;;;3.00;;
8086;SDS011;4086;54.412;9.980;2023-07-31T12:34:29;3.00;;;2.80;;
8086;SDS011;4086;54.412;9.980;2023-07-31T12:36:56;2.43;;;2.33;;
8086;SDS011;4086;54.412;9.980;2023-07-31T12:39:23;2.70;;;2.50;;
8086;SDS011;4086;54.412;9.980;2023-07-31T12:41:49;2.53;;;2.33;;
8086;SDS011;4086;54.412;9.980;2023-07-31T12:44:16;2.17;;;2.03;;
8086;SDS011;4086;54.412;9.980;2023-07-31T12:46:42;2.67;;;2.37;;
8086;SDS011;4086;54.412;9.980;2023-07-31T12:49:09;2.63;;;2.43;;
8086;SDS011;4086;54.412;9.980;2023-07-31T12:51:35;2.37;;;2.00;;
8086;SDS011;4086;54.412;9.980;2023-07-31T12:54:03;3.33;;;2.70;;
8086;SDS011;4086;54.412;9.980;2023-07-31T12:56:29;2.60;;;2.40;;
8086;SDS011;4086;54.412;9.980;2023-07-31T12:58:56;3.10;;;2.60;;
8086;SDS011;4086;54.412;9.980;2023-07-31T13:01:22;2.30;;;2.20;;
8086;SDS011;4086;54.412;9.980;2023-07-31T13:03:49;2.40;;;2.20;;
8086;SDS011;4086;54.412;9.980;2023-07-31T13:06:15;3.40;;;2.60;;
8086;SDS011;4086;54.412;9.980;2023-07-31T13:08:41;2.60;;;2.40;;
8086;SDS011;4086;54.412;9.980;2023-07-31T13:11:09;2.77;;;2.57;;
8086;SDS011;4086;54.412;9.980;2023-07-31T13:13:35;3.20;;;2.60;;
8086;SDS011;4086;54.412;9.980;2023-07-31T13:16:02;3.33;;;2.30;;
8086;SDS011;4086;54.412;9.980;2023-07-31T13:18:28;2.40;;;2.20;;
8086;SDS011;4086;54.412;9.980;2023-07-31T13:20:55;2.50;;;2.30;;
8086;SDS011;4086;54.412;9.980;2023-07-31T13:23:21;2.17;;;1.97;;
8086;SDS011;4086;54.412;9.980;2023-07-31T13:25:46;2.00;;;1.90;;
8086;SDS011;4086;54.412;9.980;2023-07-31T13:28:14;2.50;;;2.30;;
8086;SDS011;4086;54.412;9.980;2023-07-31T13:30:41;2.27;;;2.17;;
8086;SDS011;4086;54.412;9.980;2023-07-31T13:33:07;2.37;;;2.17;;
8086;SDS011;4086;54.412;9.980;2023-07-31T13:35:34;2.27;;;2.17;;
8086;SDS011;4086;54.412;9.980;2023-07-31T13:38:00;2.00;;;1.90;;
8086;SDS011;4086;54.412;9.980;2023-07-31T13:40:26;2.00;;;1.90;;
8086;SDS011;4086;54.412;9.980;2023-07-31T13:42:53;2.07;;;1.93;;
8086;SDS011;4086;54.412;9.980;2023-07-31T13:45:22;2.07;;;1.97;;
8086;SDS011;4086;54.412;9.980;2023-07-31T13:47:49;2.23;;;1.60;;
8086;SDS011;4086;54.412;9.980;2023-07-31T13:50:16;2.00;;;1.90;;
8086;SDS011;4086;54.412;9.980;2023-07-31T13:52:44;1.80;;;1.70;;
8086;SDS011;4086;54.412;9.980;2023-07-31T13:55:10;2.00;;;1.80;;
8086;SDS011;4086;54.412;9.980;2023-07-31T13:57:37;1.87;;;1.77;;
8086;SDS011;4086;54.412;9.980;2023-07-31T14:00:03;2.60;;;1.90;;
8086;SDS011;4086;54.412;9.980;2023-07-31T14:02:32;2.47;;;1.80;;
8086;SDS011;4086;54.412;9.980;2023-07-31T14:04:58;2.23;;;2.00;;
8086;SDS011;4086;54.412;9.980;2023-07-31T14:07:25;1.90;;;1.80;;
8086;SDS011;4086;54.412;9.980;2023-07-31T14:09:51;1.77;;;1.67;;
8086;SDS011;4086;54.412;9.980;2023-07-31T14:12:17;1.80;;;1.70;;
8086;SDS011;4086;54.412;9.980;2023-07-31T14:14:44;1.80;;;1.70;;
8086;SDS011;4086;54.412;9.980;2023-07-31T14:17:10;1.70;;;1.60;;
8086;SDS011;4086;54.412;9.980;2023-07-31T14:19:38;1.80;;;1.70;;
8086;SDS011;4086;54.412;9.980;2023-07-31T14:22:04;1.50;;;1.40;;
8086;SDS011;4086;54.412;9.980;2023-07-31T14:24:31;1.73;;;1.43;;
8086;SDS011;4086;54.412;9.980;2023-07-31T14:26:58;1.50;;;1.40;;
8086;SDS011;4086;54.412;9.980;2023-07-31T14:29:24;1.50;;;1.40;;
8086;SDS011;4086;54.412;9.980;2023-07-31T14:31:50;1.97;;;1.50;;
8086;SDS011;4086;54.412;9.980;2023-07-31T14:34:17;2.10;;;1.73;;
8086;SDS011;4086;54.412;9.980;2023-07-31T14:36:44;1.70;;;1.60;;
8086;SDS011;4086;54.412;9.980;2023-07-31T14:39:11;1.50;;;1.50;;
8086;SDS011;4086;54.412;9.980;2023-07-31T14:41:37;1.40;;;1.30;;
8086;SDS011;4086;54.412;9.980;2023-07-31T14:44:04;1.60;;;1.50;;
8086;SDS011;4086;54.412;9.980;2023-07-31T14:46:30;1.43;;;1.37;;
8086;SDS011;4086;54.412;9.980;2023-07-31T14:48:56;1.30;;;1.30;;
8086;SDS011;4086;54.412;9.980;2023-07-31T14:51:23;1.30;;;1.23;;
8086;SDS011;4086;54.412;9.980;2023-07-31T14:53:51;1.23;;;1.20;;
8086;SDS011;4086;54.412;9.980;2023-07-31T14:56:17;1.30;;;1.30;;
8086;SDS011;4086;54.412;9.980;2023-07-31T14:58:44;1.23;;;1.13;;
8086;SDS011;4086;54.412;9.980;2023-07-31T15:01:10;1.60;;;1.50;;
8086;SDS011;4086;54.412;9.980;2023-07-31T15:03:36;1.20;;;1.20;;
8086;SDS011;4086;54.412;9.980;2023-07-31T15:06:03;2.40;;;1.47;;
8086;SDS011;4086;54.412;9.980;2023-07-31T15:08:31;1.50;;;1.40;;